sensor_id;sensor_type;location;lat;lon;timestamp;P1;durP1;ratioP1;P2;durP2;ratioP2
47089;SDS011;32840;52.516;13.294;2022-09-12T00:01:46;2.78;;;2.35;;
47089;SDS011;32840;52.516;13.294;2022-09-12T00:04:31;4.40;;;2.88;;
47089;SDS011;32840;52.516;13.294;2022-09-12T00:07:16;3.28;;;2.53;;
47089;SDS011;32840;52.516;13.294;2022-09-12T00:10:01;3.50;;;2.80;;
47089;SDS011;32840;52.516;13.294;2022-09-12T00:12:45;3.25;;;2.78;;
47089;SDS011;32840;52.516;13.294;2022-09-12T00:15:30;4.10;;;2.70;;
47089;SDS011;32840;52.516;13.294;2022-09-12T00:18:15;3.85;;;1.98;;
47089;SDS011;32840;52.516;13.294;2022-09-12T00:21:01;3.13;;;2.25;;
47089;SDS011;32840;52.516;13.294;2022-09-12T00:23:48;4.30;;;2.67;;
47089;SDS011;32840;52.516;13.294;2022-09-12T00:26:33;3.17;;;2.72;;
47089;SDS011;32840;52.516;13.294;2022-09-12T00:29:19;4.70;;;2.55;;
47089;SDS011;32840;52.516;13.294;2022-09-12T00:32:05;5.00;;;2.75;;
47089;SDS011;32840;52.516;13.294;2022-09-12T00:34:50;5.53;;;2.60;;
47089;SDS011;32840;52.516;13.294;2022-09-12T00:37:35;3.22;;;2.50;;
47089;SDS011;32840;52.516;13.294;2022-09-12T00:40:20;3.03;;;2.33;;
47089;SDS011;32840;52.516;13.294;2022-09-12T00:43:05;3.53;;;2.85;;
47089;SDS011;32840;52.516;13.294;2022-09-12T00:45:53;3.05;;;2.58;;
47089;SDS011;32840;52.516;13.294;2022-09-12T00:48:47;4.10;;;2.53;;
47089;SDS011;32840;52.516;13.294;2022-09-12T00:51:35;3.92;;;3.00;;
47089;SDS011;32840;52.516;13.294;2022-09-12T00:54:22;3.30;;;2.30;;
47089;SDS011;32840;52.516;13.294;2022-09-12T01:00:00;2.85;;;2.28;;
47089;SDS011;32840;52.516;13.294;2022-09-12T01:02:57;3.80;;;2.70;;
47089;SDS011;32840;52.516;13.294;2022-09-12T01:09:05;4.57;;;3.10;;
47089;SDS011;32840;52.516;13.294;2022-09-12T01:11:51;3.53;;;2.83;;
47089;SDS011;32840;52.516;13.294;2022-09-12T01:14:37;3.42;;;2.90;;
47089;SDS011;32840;52.516;13.294;2022-09-12T01:17:22;4.25;;;2.85;;
47089;SDS011;32840;52.516;13.294;2022-09-12T01:29:42;4.78;;;3.70;;
47089;SDS011;32840;52.516;13.294;2022-09-12T01:35:46;8.57;;;3.70;;
47089;SDS011;32840;52.516;13.294;2022-09-12T01:41:27;6.35;;;3.58;;
47089;SDS011;32840;52.516;13.294;2022-09-12T01:47:39;4.78;;;3.45;;
47089;SDS011;32840;52.516;13.294;2022-09-12T01:50:34;4.57;;;3.35;;
47089;SDS011;32840;52.516;13.294;2022-09-12T01:53:26;4.65;;;3.72;;
47089;SDS011;32840;52.516;13.294;2022-09-12T01:56:20;6.32;;;3.50;;
47089;SDS011;32840;52.516;13.294;2022-09-12T01:59:11;3.47;;;3.08;;
47089;SDS011;32840;52.516;13.294;2022-09-12T02:05:05;4.35;;;3.40;;
47089;SDS011;32840;52.516;13.294;2022-09-12T02:07:52;4.05;;;3.50;;
47089;SDS011;32840;52.516;13.294;2022-09-12T02:11:03;5.82;;;3.63;;
47089;SDS011;32840;52.516;13.294;2022-09-12T02:14:00;4.68;;;3.72;;
47089;SDS011;32840;52.516;13.294;2022-09-12T02:16:52;4.22;;;3.55;;
47089;SDS011;32840;52.516;13.294;2022-09-12T02:19:51;4.38;;;3.58;;
47089;SDS011;32840;52.516;13.294;2022-09-12T02:25:25;6.35;;;4.10;;
47089;SDS011;32840;52.516;13.294;2022-09-12T02:28:16;5.05;;;3.95;;
47089;SDS011;32840;52.516;13.294;2022-09-12T02:34:08;6.03;;;4.38;;
47089;SDS011;32840;52.516;13.294;2022-09-12T02:37:06;5.38;;;3.65;;
47089;SDS011;32840;52.516;13.294;2022-09-12T02:40:14;4.43;;;3.65;;
47089;SDS011;32840;52.516;13.294;2022-09-12T02:42:59;5.13;;;3.55;;
47089;SDS011;32840;52.516;13.294;2022-09-12T02:45:44;5.40;;;3.70;;
47089;SDS011;32840;52.516;13.294;2022-09-12T02:48:30;6.03;;;3.55;;
47089;SDS011;32840;52.516;13.294;2022-09-12T02:51:18;5.78;;;3.53;;
47089;SDS011;32840;52.516;13.294;2022-09-12T02:54:04;5.95;;;4.28;;
47089;SDS011;32840;52.516;13.294;2022-09-12T02:56:50;5.88;;;3.90;;
47089;SDS011;32840;52.516;13.294;2022-09-12T02:59:35;6.82;;;4.07;;
47089;SDS011;32840;52.516;13.294;2022-09-12T03:08:35;5.97;;;3.95;;
47089;SDS011;32840;52.516;13.294;2022-09-12T03:11:31;5.43;;;4.28;;
47089;SDS011;32840;52.516;13.294;2022-09-12T03:14:40;6.28;;;4.07;;
47089;SDS011;32840;52.516;13.294;2022-09-12T03:26:56;5.03;;;4.20;;
47089;SDS011;32840;52.516;13.294;2022-09-12T03:29:48;6.55;;;3.70;;
47089;SDS011;32840;52.516;13.294;2022-09-12T03:32:48;5.50;;;4.30;;
47089;SDS011;32840;52.516;13.294;2022-09-12T03:35:34;5.05;;;4.03;;
47089;SDS011;32840;52.516;13.294;2022-09-12T03:38:19;5.82;;;4.47;;
47089;SDS011;32840;52.516;13.294;2022-09-12T03:41:04;5.93;;;4.50;;
47089;SDS011;32840;52.516;13.294;2022-09-12T03:43:49;4.90;;;4.22;;
47089;SDS011;32840;52.516;13.294;2022-09-12T03:46:34;5.55;;;4.50;;
47089;SDS011;32840;52.516;13.294;2022-09-12T03:49:19;5.43;;;4.45;;
47089;SDS011;32840;52.516;13.294;2022-09-12T03:52:04;4.88;;;4.13;;
47089;SDS011;32840;52.516;13.294;2022-09-12T03:54:49;5.35;;;4.70;;
47089;SDS011;32840;52.516;13.294;2022-09-12T03:57:34;5.53;;;4.75;;
47089;SDS011;32840;52.516;13.294;2022-09-12T04:00:19;5.18;;;4.13;;
47089;SDS011;32840;52.516;13.294;2022-09-12T04:03:05;7.47;;;5.82;;
47089;SDS011;32840;52.516;13.294;2022-09-12T04:05:49;5.68;;;4.60;;
47089;SDS011;32840;52.516;13.294;2022-09-12T04:08:35;6.22;;;5.18;;
47089;SDS011;32840;52.516;13.294;2022-09-12T04:11:20;8.52;;;5.13;;
47089;SDS011;32840;52.516;13.294;2022-09-12T04:14:05;4.50;;;4.07;;
47089;SDS011;32840;52.516;13.294;2022-09-12T04:16:50;7.90;;;5.20;;
47089;SDS011;32840;52.516;13.294;2022-09-12T04:19:35;6.60;;;5.10;;
47089;SDS011;32840;52.516;13.294;2022-09-12T04:22:20;5.93;;;4.75;;
47089;SDS011;32840;52.516;13.294;2022-09-12T04:25:05;7.97;;;5.53;;
47089;SDS011;32840;52.516;13.294;2022-09-12T04:27:50;6.32;;;5.60;;
47089;SDS011;32840;52.516;13.294;2022-09-12T04:30:35;5.88;;;4.95;;
47089;SDS011;32840;52.516;13.294;2022-09-12T04:33:21;5.72;;;4.68;;
47089;SDS011;32840;52.516;13.294;2022-09-12T04:36:09;8.65;;;5.53;;
47089;SDS011;32840;52.516;13.294;2022-09-12T04:38:57;7.25;;;5.82;;
47089;SDS011;32840;52.516;13.294;2022-09-12T04:41:43;6.57;;;5.47;;
47089;SDS011;32840;52.516;13.294;2022-09-12T04:44:27;6.90;;;5.10;;
47089;SDS011;32840;52.516;13.294;2022-09-12T04:47:12;9.27;;;6.10;;
47089;SDS011;32840;52.516;13.294;2022-09-12T04:49:57;7.15;;;5.53;;
47089;SDS011;32840;52.516;13.294;2022-09-12T04:52:42;8.05;;;6.18;;
47089;SDS011;32840;52.516;13.294;2022-09-12T04:55:27;7.93;;;6.43;;
47089;SDS011;32840;52.516;13.294;2022-09-12T04:58:12;13.35;;;6.85;;
47089;SDS011;32840;52.516;13.294;2022-09-12T05:01:07;8.40;;;5.63;;
47089;SDS011;32840;52.516;13.294;2022-09-12T05:03:54;8.18;;;6.40;;
47089;SDS011;32840;52.516;13.294;2022-09-12T05:06:41;7.95;;;6.47;;
47089;SDS011;32840;52.516;13.294;2022-09-12T05:09:26;9.25;;;6.82;;
47089;SDS011;32840;52.516;13.294;2022-09-12T05:12:12;9.18;;;7.70;;
47089;SDS011;32840;52.516;13.294;2022-09-12T05:14:57;8.43;;;6.72;;
47089;SDS011;32840;52.516;13.294;2022-09-12T05:17:42;10.23;;;7.03;;
47089;SDS011;32840;52.516;13.294;2022-09-12T05:20:27;12.55;;;7.85;;
47089;SDS011;32840;52.516;13.294;2022-09-12T05:23:12;9.05;;;7.00;;
47089;SDS011;32840;52.516;13.294;2022-09-12T05:25:57;10.90;;;8.10;;
47089;SDS011;32840;52.516;13.294;2022-09-12T05:28:43;12.48;;;7.85;;
47089;SDS011;32840;52.516;13.294;2022-09-12T05:31:29;9.25;;;7.13;;
47089;SDS011;32840;52.516;13.294;2022-09-12T05:34:13;14.25;;;7.63;;
47089;SDS011;32840;52.516;13.294;2022-09-12T05:36:58;12.60;;;8.63;;
47089;SDS011;32840;52.516;13.294;2022-09-12T05:39:43;13.35;;;8.80;;
47089;SDS011;32840;52.516;13.294;2022-09-12T05:42:29;21.17;;;15.90;;
47089;SDS011;32840;52.516;13.294;2022-09-12T05:45:14;13.00;;;9.60;;
47089;SDS011;32840;52.516;13.294;2022-09-12T05:47:58;12.43;;;7.93;;
47089;SDS011;32840;52.516;13.294;2022-09-12T05:50:43;14.13;;;7.85;;
47089;SDS011;32840;52.516;13.294;2022-09-12T05:53:29;11.88;;;7.47;;
47089;SDS011;32840;52.516;13.294;2022-09-12T05:56:15;11.88;;;8.80;;
47089;SDS011;32840;52.516;13.294;2022-09-12T05:59:02;12.45;;;9.32;;
47089;SDS011;32840;52.516;13.294;2022-09-12T06:01:48;12.80;;;8.60;;
47089;SDS011;32840;52.516;13.294;2022-09-12T06:04:33;16.63;;;9.23;;
47089;SDS011;32840;52.516;13.294;2022-09-12T06:07:18;11.88;;;8.73;;
47089;SDS011;32840;52.516;13.294;2022-09-12T06:10:03;14.35;;;9.25;;
47089;SDS011;32840;52.516;13.294;2022-09-12T06:12:48;13.40;;;9.70;;
47089;SDS011;32840;52.516;13.294;2022-09-12T06:15:33;11.88;;;8.70;;
47089;SDS011;32840;52.516;13.294;2022-09-12T06:18:19;13.90;;;8.93;;
47089;SDS011;32840;52.516;13.294;2022-09-12T06:21:05;14.82;;;9.73;;
47089;SDS011;32840;52.516;13.294;2022-09-12T06:23:52;14.18;;;8.90;;
47089;SDS011;32840;52.516;13.294;2022-09-12T06:29:27;11.77;;;9.05;;
47089;SDS011;32840;52.516;13.294;2022-09-12T06:32:12;12.23;;;8.73;;
47089;SDS011;32840;52.516;13.294;2022-09-12T06:34:57;13.52;;;9.13;;
47089;SDS011;32840;52.516;13.294;2022-09-12T06:37:45;13.50;;;10.40;;
47089;SDS011;32840;52.516;13.294;2022-09-12T06:40:30;11.93;;;9.10;;
47089;SDS011;32840;52.516;13.294;2022-09-12T06:43:16;10.63;;;8.40;;
47089;SDS011;32840;52.516;13.294;2022-09-12T06:46:01;12.75;;;8.77;;
47089;SDS011;32840;52.516;13.294;2022-09-12T06:48:47;13.38;;;9.07;;
47089;SDS011;32840;52.516;13.294;2022-09-12T06:51:32;10.85;;;8.73;;
47089;SDS011;32840;52.516;13.294;2022-09-12T06:54:19;13.25;;;8.90;;
47089;SDS011;32840;52.516;13.294;2022-09-12T06:57:04;12.38;;;9.57;;
47089;SDS011;32840;52.516;13.294;2022-09-12T06:59:49;14.23;;;10.98;;
47089;SDS011;32840;52.516;13.294;2022-09-12T07:02:33;9.65;;;8.65;;
47089;SDS011;32840;52.516;13.294;2022-09-12T07:05:18;13.15;;;8.88;;
47089;SDS011;32840;52.516;13.294;2022-09-12T07:08:03;11.05;;;9.40;;
47089;SDS011;32840;52.516;13.294;2022-09-12T07:10:48;11.43;;;9.15;;
47089;SDS011;32840;52.516;13.294;2022-09-12T07:13:33;12.45;;;9.02;;
47089;SDS011;32840;52.516;13.294;2022-09-12T07:16:18;12.20;;;9.18;;
47089;SDS011;32840;52.516;13.294;2022-09-12T07:19:05;22.90;;;14.45;;
47089;SDS011;32840;52.516;13.294;2022-09-12T07:21:51;14.60;;;9.18;;
47089;SDS011;32840;52.516;13.294;2022-09-12T07:24:36;13.80;;;11.05;;
47089;SDS011;32840;52.516;13.294;2022-09-12T07:27:21;12.00;;;8.68;;
47089;SDS011;32840;52.516;13.294;2022-09-12T07:30:07;16.73;;;12.10;;
47089;SDS011;32840;52.516;13.294;2022-09-12T07:32:52;16.10;;;10.27;;
47089;SDS011;32840;52.516;13.294;2022-09-12T07:35:37;17.58;;;11.13;;
47089;SDS011;32840;52.516;13.294;2022-09-12T07:38:22;12.30;;;8.27;;
47089;SDS011;32840;52.516;13.294;2022-09-12T07:41:10;11.48;;;7.80;;
47089;SDS011;32840;52.516;13.294;2022-09-12T07:44:01;14.88;;;7.90;;
47089;SDS011;32840;52.516;13.294;2022-09-12T07:46:47;22.25;;;16.90;;
47089;SDS011;32840;52.516;13.294;2022-09-12T07:49:33;9.73;;;7.80;;
47089;SDS011;32840;52.516;13.294;2022-09-12T07:52:19;9.68;;;6.15;;
47089;SDS011;32840;52.516;13.294;2022-09-12T07:55:04;11.20;;;5.72;;
47089;SDS011;32840;52.516;13.294;2022-09-12T07:57:49;5.25;;;4.75;;
47089;SDS011;32840;52.516;13.294;2022-09-12T08:00:35;7.70;;;5.03;;
47089;SDS011;32840;52.516;13.294;2022-09-12T08:03:20;9.00;;;4.78;;
47089;SDS011;32840;52.516;13.294;2022-09-12T08:08:55;6.85;;;3.47;;
47089;SDS011;32840;52.516;13.294;2022-09-12T08:11:41;5.88;;;3.40;;
47089;SDS011;32840;52.516;13.294;2022-09-12T08:14:27;5.63;;;3.40;;
47089;SDS011;32840;52.516;13.294;2022-09-12T08:17:12;4.38;;;2.72;;
47089;SDS011;32840;52.516;13.294;2022-09-12T08:19:57;7.45;;;3.25;;
47089;SDS011;32840;52.516;13.294;2022-09-12T08:22:42;4.53;;;3.08;;
47089;SDS011;32840;52.516;13.294;2022-09-12T08:25:27;6.25;;;2.85;;
47089;SDS011;32840;52.516;13.294;2022-09-12T08:28:12;4.82;;;2.95;;
47089;SDS011;32840;52.516;13.294;2022-09-12T08:31:01;5.30;;;2.38;;
47089;SDS011;32840;52.516;13.294;2022-09-12T08:33:47;5.32;;;3.03;;
47089;SDS011;32840;52.516;13.294;2022-09-12T08:36:32;4.57;;;2.90;;
47089;SDS011;32840;52.516;13.294;2022-09-12T08:39:17;3.83;;;2.50;;
47089;SDS011;32840;52.516;13.294;2022-09-12T08:42:03;2.55;;;2.00;;
47089;SDS011;32840;52.516;13.294;2022-09-12T08:48:01;4.60;;;1.42;;
47089;SDS011;32840;52.516;13.294;2022-09-12T08:50:48;7.07;;;3.22;;
47089;SDS011;32840;52.516;13.294;2022-09-12T08:53:33;2.85;;;1.13;;
47089;SDS011;32840;52.516;13.294;2022-09-12T08:56:20;2.97;;;1.40;;
47089;SDS011;32840;52.516;13.294;2022-09-12T08:59:06;2.90;;;1.10;;
47089;SDS011;32840;52.516;13.294;2022-09-12T09:01:52;2.65;;;1.30;;
47089;SDS011;32840;52.516;13.294;2022-09-12T09:04:51;3.28;;;2.25;;
47089;SDS011;32840;52.516;13.294;2022-09-12T09:10:46;2.00;;;1.00;;
47089;SDS011;32840;52.516;13.294;2022-09-12T09:17:00;2.30;;;1.20;;
47089;SDS011;32840;52.516;13.294;2022-09-12T09:19:48;2.03;;;0.95;;
47089;SDS011;32840;52.516;13.294;2022-09-12T09:22:43;3.70;;;1.45;;
47089;SDS011;32840;52.516;13.294;2022-09-12T09:28:59;4.82;;;1.90;;
47089;SDS011;32840;52.516;13.294;2022-09-12T09:31:53;1.80;;;1.10;;
47089;SDS011;32840;52.516;13.294;2022-09-12T09:34:41;3.22;;;1.13;;
47089;SDS011;32840;52.516;13.294;2022-09-12T09:37:52;3.58;;;1.20;;
47089;SDS011;32840;52.516;13.294;2022-09-12T09:44:06;1.15;;;0.80;;
47089;SDS011;32840;52.516;13.294;2022-09-12T09:46:52;1.83;;;1.00;;
47089;SDS011;32840;52.516;13.294;2022-09-12T09:49:39;2.38;;;1.27;;
47089;SDS011;32840;52.516;13.294;2022-09-12T09:52:25;2.92;;;1.58;;
47089;SDS011;32840;52.516;13.294;2022-09-12T09:55:14;2.55;;;1.25;;
47089;SDS011;32840;52.516;13.294;2022-09-12T09:58:05;3.63;;;1.70;;
47089;SDS011;32840;52.516;13.294;2022-09-12T10:00:50;8.90;;;6.95;;
47089;SDS011;32840;52.516;13.294;2022-09-12T10:03:47;2.95;;;1.58;;
47089;SDS011;32840;52.516;13.294;2022-09-12T10:06:36;2.58;;;1.33;;
47089;SDS011;32840;52.516;13.294;2022-09-12T10:09:26;2.33;;;1.00;;
47089;SDS011;32840;52.516;13.294;2022-09-12T10:12:21;1.77;;;0.98;;
47089;SDS011;32840;52.516;13.294;2022-09-12T10:15:22;2.35;;;1.20;;
47089;SDS011;32840;52.516;13.294;2022-09-12T10:18:15;1.88;;;1.15;;
47089;SDS011;32840;52.516;13.294;2022-09-12T10:21:33;4.95;;;1.40;;
47089;SDS011;32840;52.516;13.294;2022-09-12T10:25:01;3.50;;;1.10;;
47089;SDS011;32840;52.516;13.294;2022-09-12T10:27:32;1.67;;;1.10;;
47089;SDS011;32840;52.516;13.294;2022-09-12T10:30:19;2.25;;;1.10;;
47089;SDS011;32840;52.516;13.294;2022-09-12T10:33:09;2.60;;;1.40;;
47089;SDS011;32840;52.516;13.294;2022-09-12T10:35:56;3.90;;;2.55;;
47089;SDS011;32840;52.516;13.294;2022-09-12T10:38:47;4.45;;;1.65;;
47089;SDS011;32840;52.516;13.294;2022-09-12T10:41:42;9.05;;;2.08;;
47089;SDS011;32840;52.516;13.294;2022-09-12T10:44:29;3.25;;;1.35;;
47089;SDS011;32840;52.516;13.294;2022-09-12T10:47:19;10.60;;;8.20;;
47089;SDS011;32840;52.516;13.294;2022-09-12T10:56:06;1.70;;;1.08;;
47089;SDS011;32840;52.516;13.294;2022-09-12T11:02:28;4.03;;;1.10;;
47089;SDS011;32840;52.516;13.294;2022-09-12T11:05:25;3.05;;;1.30;;
47089;SDS011;32840;52.516;13.294;2022-09-12T11:11:52;2.60;;;1.20;;
47089;SDS011;32840;52.516;13.294;2022-09-12T11:14:54;2.58;;;1.30;;
47089;SDS011;32840;52.516;13.294;2022-09-12T11:18:10;3.65;;;1.30;;
47089;SDS011;32840;52.516;13.294;2022-09-12T11:24:08;4.90;;;1.70;;
47089;SDS011;32840;52.516;13.294;2022-09-12T11:27:17;1.95;;;1.25;;
47089;SDS011;32840;52.516;13.294;2022-09-12T11:30:19;2.63;;;1.50;;
47089;SDS011;32840;52.516;13.294;2022-09-12T11:36:32;4.95;;;3.10;;
47089;SDS011;32840;52.516;13.294;2022-09-12T11:39:33;3.33;;;1.40;;
47089;SDS011;32840;52.516;13.294;2022-09-12T11:42:30;3.58;;;1.20;;
47089;SDS011;32840;52.516;13.294;2022-09-12T11:45:21;2.22;;;1.08;;
47089;SDS011;32840;52.516;13.294;2022-09-12T11:51:19;3.03;;;1.33;;
47089;SDS011;32840;52.516;13.294;2022-09-12T12:03:24;5.72;;;2.05;;
47089;SDS011;32840;52.516;13.294;2022-09-12T12:09:29;2.03;;;0.70;;
47089;SDS011;32840;52.516;13.294;2022-09-12T12:12:15;1.38;;;0.80;;
47089;SDS011;32840;52.516;13.294;2022-09-12T12:15:12;1.75;;;0.55;;
47089;SDS011;32840;52.516;13.294;2022-09-12T12:20:52;2.25;;;1.30;;
47089;SDS011;32840;52.516;13.294;2022-09-12T12:23:38;1.38;;;0.98;;
47089;SDS011;32840;52.516;13.294;2022-09-12T12:35:01;4.03;;;1.70;;
47089;SDS011;32840;52.516;13.294;2022-09-12T12:47:47;2.50;;;1.45;;
47089;SDS011;32840;52.516;13.294;2022-09-12T12:50:33;3.17;;;2.17;;
47089;SDS011;32840;52.516;13.294;2022-09-12T12:53:21;1.50;;;0.90;;
47089;SDS011;32840;52.516;13.294;2022-09-12T12:59:22;2.05;;;0.90;;
47089;SDS011;32840;52.516;13.294;2022-09-12T13:02:14;2.80;;;0.95;;
47089;SDS011;32840;52.516;13.294;2022-09-12T13:05:03;4.82;;;1.10;;
47089;SDS011;32840;52.516;13.294;2022-09-12T13:08:05;3.13;;;0.93;;
47089;SDS011;32840;52.516;13.294;2022-09-12T13:10:55;3.47;;;1.17;;
47089;SDS011;32840;52.516;13.294;2022-09-12T13:13:48;2.80;;;1.40;;
47089;SDS011;32840;52.516;13.294;2022-09-12T13:16:53;4.35;;;1.27;;
47089;SDS011;32840;52.516;13.294;2022-09-12T13:19:42;7.82;;;3.45;;
47089;SDS011;32840;52.516;13.294;2022-09-12T13:22:36;3.97;;;2.60;;
47089;SDS011;32840;52.516;13.294;2022-09-12T13:25:31;13.65;;;9.23;;
47089;SDS011;32840;52.516;13.294;2022-09-12T13:28:17;2.15;;;0.98;;
47089;SDS011;32840;52.516;13.294;2022-09-12T13:34:16;1.83;;;1.17;;
47089;SDS011;32840;52.516;13.294;2022-09-12T13:37:11;2.87;;;1.37;;
47089;SDS011;32840;52.516;13.294;2022-09-12T13:40:28;3.47;;;2.13;;
47089;SDS011;32840;52.516;13.294;2022-09-12T13:43:22;3.53;;;1.35;;
47089;SDS011;32840;52.516;13.294;2022-09-12T13:46:25;2.78;;;1.50;;
47089;SDS011;32840;52.516;13.294;2022-09-12T13:49:31;1.90;;;1.10;;
47089;SDS011;32840;52.516;13.294;2022-09-12T13:52:20;2.10;;;1.00;;
47089;SDS011;32840;52.516;13.294;2022-09-12T13:55:13;3.00;;;1.08;;
47089;SDS011;32840;52.516;13.294;2022-09-12T14:03:57;4.28;;;1.77;;
47089;SDS011;32840;52.516;13.294;2022-09-12T14:07:36;3.30;;;1.10;;
47089;SDS011;32840;52.516;13.294;2022-09-12T14:10:15;2.10;;;1.10;;
47089;SDS011;32840;52.516;13.294;2022-09-12T14:13:24;5.45;;;1.38;;
47089;SDS011;32840;52.516;13.294;2022-09-12T14:16:16;3.22;;;1.00;;
47089;SDS011;32840;52.516;13.294;2022-09-12T14:19:04;1.92;;;1.17;;
47089;SDS011;32840;52.516;13.294;2022-09-12T14:21:53;3.28;;;1.10;;
47089;SDS011;32840;52.516;13.294;2022-09-12T14:24:41;4.18;;;1.02;;
47089;SDS011;32840;52.516;13.294;2022-09-12T14:27:34;2.08;;;0.90;;
47089;SDS011;32840;52.516;13.294;2022-09-12T14:33:20;3.05;;;2.00;;
47089;SDS011;32840;52.516;13.294;2022-09-12T14:36:07;4.38;;;0.90;;
47089;SDS011;32840;52.516;13.294;2022-09-12T14:38:56;6.18;;;2.17;;
47089;SDS011;32840;52.516;13.294;2022-09-12T14:41:44;3.58;;;1.10;;
47089;SDS011;32840;52.516;13.294;2022-09-12T14:44:29;2.65;;;1.00;;
47089;SDS011;32840;52.516;13.294;2022-09-12T14:47:21;4.63;;;1.00;;
47089;SDS011;32840;52.516;13.294;2022-09-12T14:50:43;5.97;;;2.50;;
47089;SDS011;32840;52.516;13.294;2022-09-12T14:53:22;2.25;;;1.60;;
47089;SDS011;32840;52.516;13.294;2022-09-12T14:56:10;4.07;;;1.40;;
47089;SDS011;32840;52.516;13.294;2022-09-12T14:59:18;1.92;;;1.10;;
47089;SDS011;32840;52.516;13.294;2022-09-12T15:07:53;4.57;;;1.50;;
47089;SDS011;32840;52.516;13.294;2022-09-12T15:10:43;4.55;;;1.05;;
47089;SDS011;32840;52.516;13.294;2022-09-12T15:13:28;3.03;;;1.00;;
47089;SDS011;32840;52.516;13.294;2022-09-12T15:16:23;1.50;;;0.93;;
47089;SDS011;32840;52.516;13.294;2022-09-12T15:19:08;1.83;;;1.00;;
47089;SDS011;32840;52.516;13.294;2022-09-12T15:21:53;2.25;;;1.10;;
47089;SDS011;32840;52.516;13.294;2022-09-12T15:24:38;2.85;;;1.27;;
47089;SDS011;32840;52.516;13.294;2022-09-12T15:27:23;1.92;;;1.13;;
47089;SDS011;32840;52.516;13.294;2022-09-12T15:30:10;7.65;;;2.70;;
47089;SDS011;32840;52.516;13.294;2022-09-12T15:32:56;3.10;;;2.10;;
47089;SDS011;32840;52.516;13.294;2022-09-12T15:35:43;3.30;;;1.45;;
47089;SDS011;32840;52.516;13.294;2022-09-12T15:38:28;12.35;;;6.20;;
47089;SDS011;32840;52.516;13.294;2022-09-12T15:41:17;4.25;;;2.65;;
47089;SDS011;32840;52.516;13.294;2022-09-12T15:44:03;1.70;;;1.15;;
47089;SDS011;32840;52.516;13.294;2022-09-12T15:46:51;1.80;;;1.27;;
47089;SDS011;32840;52.516;13.294;2022-09-12T15:49:36;2.10;;;1.10;;
47089;SDS011;32840;52.516;13.294;2022-09-12T15:52:21;5.00;;;1.10;;
47089;SDS011;32840;52.516;13.294;2022-09-12T15:55:09;3.63;;;1.15;;
47089;SDS011;32840;52.516;13.294;2022-09-12T15:58:03;1.98;;;1.30;;
47089;SDS011;32840;52.516;13.294;2022-09-12T16:00:48;3.97;;;2.60;;
47089;SDS011;32840;52.516;13.294;2022-09-12T16:03:33;1.85;;;1.13;;
47089;SDS011;32840;52.516;13.294;2022-09-12T16:06:18;3.38;;;1.17;;
47089;SDS011;32840;52.516;13.294;2022-09-12T16:09:03;2.08;;;1.10;;
47089;SDS011;32840;52.516;13.294;2022-09-12T16:11:48;2.40;;;1.13;;
47089;SDS011;32840;52.516;13.294;2022-09-12T16:14:33;2.42;;;1.20;;
47089;SDS011;32840;52.516;13.294;2022-09-12T16:17:18;2.55;;;1.48;;
47089;SDS011;32840;52.516;13.294;2022-09-12T16:20:03;2.22;;;1.23;;
47089;SDS011;32840;52.516;13.294;2022-09-12T16:22:48;3.85;;;1.40;;
47089;SDS011;32840;52.516;13.294;2022-09-12T16:25:33;4.07;;;2.20;;
47089;SDS011;32840;52.516;13.294;2022-09-12T16:28:18;2.90;;;2.08;;
47089;SDS011;32840;52.516;13.294;2022-09-12T16:31:04;5.65;;;3.53;;
47089;SDS011;32840;52.516;13.294;2022-09-12T16:33:50;5.70;;;2.63;;
47089;SDS011;32840;52.516;13.294;2022-09-12T16:36:36;2.92;;;1.33;;
47089;SDS011;32840;52.516;13.294;2022-09-12T16:39:21;2.90;;;1.58;;
47089;SDS011;32840;52.516;13.294;2022-09-12T16:42:07;3.10;;;1.60;;
47089;SDS011;32840;52.516;13.294;2022-09-12T16:44:52;3.35;;;1.30;;
47089;SDS011;32840;52.516;13.294;2022-09-12T16:47:37;3.17;;;1.90;;
47089;SDS011;32840;52.516;13.294;2022-09-12T16:50:22;3.50;;;1.30;;
47089;SDS011;32840;52.516;13.294;2022-09-12T16:53:07;3.30;;;1.70;;
47089;SDS011;32840;52.516;13.294;2022-09-12T16:55:52;3.08;;;1.65;;
47089;SDS011;32840;52.516;13.294;2022-09-12T16:58:39;5.15;;;1.55;;
47089;SDS011;32840;52.516;13.294;2022-09-12T17:01:24;1.90;;;1.17;;
47089;SDS011;32840;52.516;13.294;2022-09-12T17:04:09;2.58;;;1.10;;
47089;SDS011;32840;52.516;13.294;2022-09-12T17:06:54;2.92;;;1.60;;
47089;SDS011;32840;52.516;13.294;2022-09-12T17:09:42;2.80;;;1.70;;
47089;SDS011;32840;52.516;13.294;2022-09-12T17:12:27;2.42;;;1.50;;
47089;SDS011;32840;52.516;13.294;2022-09-12T17:15:12;5.43;;;3.00;;
47089;SDS011;32840;52.516;13.294;2022-09-12T17:17:57;20.52;;;14.50;;
47089;SDS011;32840;52.516;13.294;2022-09-12T17:20:42;3.78;;;2.47;;
47089;SDS011;32840;52.516;13.294;2022-09-12T17:23:27;2.00;;;1.38;;
47089;SDS011;32840;52.516;13.294;2022-09-12T17:26:13;4.78;;;1.80;;
47089;SDS011;32840;52.516;13.294;2022-09-12T17:28:59;3.00;;;1.77;;
47089;SDS011;32840;52.516;13.294;2022-09-12T17:31:44;4.72;;;1.90;;
47089;SDS011;32840;52.516;13.294;2022-09-12T17:34:30;5.22;;;2.30;;
47089;SDS011;32840;52.516;13.294;2022-09-12T17:37:15;11.25;;;2.45;;
47089;SDS011;32840;52.516;13.294;2022-09-12T17:40:01;3.45;;;2.17;;
47089;SDS011;32840;52.516;13.294;2022-09-12T17:42:47;9.10;;;6.30;;
47089;SDS011;32840;52.516;13.294;2022-09-12T17:45:32;4.07;;;2.80;;
47089;SDS011;32840;52.516;13.294;2022-09-12T17:48:16;8.82;;;4.25;;
47089;SDS011;32840;52.516;13.294;2022-09-12T17:51:06;4.95;;;2.90;;
47089;SDS011;32840;52.516;13.294;2022-09-12T17:54:02;5.80;;;4.28;;
47089;SDS011;32840;52.516;13.294;2022-09-12T17:56:51;3.78;;;2.63;;
47089;SDS011;32840;52.516;13.294;2022-09-12T17:59:35;8.07;;;6.72;;
47089;SDS011;32840;52.516;13.294;2022-09-12T18:02:20;5.82;;;4.28;;
47089;SDS011;32840;52.516;13.294;2022-09-12T18:05:05;5.63;;;3.47;;
47089;SDS011;32840;52.516;13.294;2022-09-12T18:07:51;4.20;;;3.05;;
47089;SDS011;32840;52.516;13.294;2022-09-12T18:10:35;4.45;;;2.58;;
47089;SDS011;32840;52.516;13.294;2022-09-12T18:13:21;9.07;;;2.78;;
47089;SDS011;32840;52.516;13.294;2022-09-12T18:16:06;5.03;;;2.85;;
47089;SDS011;32840;52.516;13.294;2022-09-12T18:18:53;3.53;;;2.25;;
47089;SDS011;32840;52.516;13.294;2022-09-12T18:21:39;4.28;;;3.30;;
47089;SDS011;32840;52.516;13.294;2022-09-12T18:24:24;4.93;;;3.30;;
47089;SDS011;32840;52.516;13.294;2022-09-12T18:27:09;5.20;;;3.78;;
47089;SDS011;32840;52.516;13.294;2022-09-12T18:29:54;6.30;;;3.33;;
47089;SDS011;32840;52.516;13.294;2022-09-12T18:32:39;6.15;;;3.83;;
47089;SDS011;32840;52.516;13.294;2022-09-12T18:35:24;6.20;;;3.80;;
47089;SDS011;32840;52.516;13.294;2022-09-12T18:38:09;6.45;;;4.15;;
47089;SDS011;32840;52.516;13.294;2022-09-12T18:41:04;13.80;;;5.35;;
47089;SDS011;32840;52.516;13.294;2022-09-12T18:43:54;8.13;;;4.72;;
47089;SDS011;32840;52.516;13.294;2022-09-12T18:46:42;8.48;;;4.57;;
47089;SDS011;32840;52.516;13.294;2022-09-12T18:49:27;5.78;;;4.05;;
47089;SDS011;32840;52.516;13.294;2022-09-12T18:52:13;11.65;;;7.40;;
47089;SDS011;32840;52.516;13.294;2022-09-12T18:54:58;6.47;;;4.18;;
47089;SDS011;32840;52.516;13.294;2022-09-12T18:57:43;8.05;;;4.60;;
47089;SDS011;32840;52.516;13.294;2022-09-12T19:00:28;7.70;;;5.35;;
47089;SDS011;32840;52.516;13.294;2022-09-12T19:03:13;10.20;;;5.80;;
47089;SDS011;32840;52.516;13.294;2022-09-12T19:05:58;10.13;;;5.32;;